• Join FlightAware (Why Join?)
  • Login
  • US Flag 
09:08PM EDT


 

Airport Tracker/Info


-or-


 

Live Flight TrackerFlight Track Log ✈ NKS237 ✈ 20-Sep-2013 ✈ KFLL - SKRG / MDE

Flight Track Log - Related Links

Times and Time Zones

All times are in EDT time to prevent confusion due to time zone crossing. See the NKS237 flight status page for this flight to view local times or setup timezone preferences in your user account.

Time Position Orientation Groundspeed Altitude Reporting Facility
EDT Latitude Longitude Course Direction KTS MPH feet Rate Location/Type
10:53AM 26.0770 -80.1350 90° East 165 190 500  Level FlightAware
10:54AM 26.0780 -80.1040 88° East 184 212 1,700 1,680 Climbing FlightAware
10:54AM 26.0780 -80.0820 90° East 211 243 2,000 720 Climbing FlightAware
10:54AM 26.0790 -80.0680 85° East 232 267 2,100 1,380 Climbing FlightAware
10:55AM 26.0800 -80.0370 88° East 257 296 2,900 2,040 Climbing FlightAware
10:55AM 26.0820 -80.0090 85° East 261 300 3,700 1,920 Climbing FlightAware
10:56AM 26.0830 -79.9820 88° East 265 305 4,200 1,920 Climbing FlightAware
10:56AM 26.0840 -79.9540 88° East 276 318 5,000 2,460 Climbing FlightAware
10:56AM 26.0820 -79.9080 93° East 287 330 6,400 2,580 Climbing FlightAware
10:57AM 26.0770 -79.8850 104° East 293 337 7,100 2,700 Climbing FlightAware
10:57AM 26.0700 -79.8480 102° East 297 342 8,200 2,640 Climbing FlightAware
10:57AM 26.0650 -79.8190 101° East 297 342 9,100 2,400 Climbing FlightAware
10:58AM 26.0590 -79.7890 103° East 305 351 9,800 1,620 Climbing FlightAware
10:58AM 26.0460 -79.7270 103° East 333 383 10,700 1,080 Climbing FlightAware
10:59AM 26.0330 -79.6630 103° East 371 427 11,200 1,440 Climbing FlightAware
11:00AM 26.0180 -79.5890 103° East 381 438 12,500 2,100 Climbing FlightAware
11:00AM 26.0060 -79.5300 103° East 382 440 13,700 2,040 Climbing FlightAware
11:01AM 25.9900 -79.4540 103° East 387 445 14,900 1,800 Climbing FlightAware
11:01AM 25.9780 -79.3950 103° East 392 451 15,800 1,800 Climbing FlightAware
11:02AM 25.9650 -79.3360 104° East 397 457 16,700 1,740 Climbing FlightAware
11:02AM 25.9510 -79.3130 124° Southeast 399 459 17,100 1,560 Climbing FlightAware
11:02AM 25.9360 -79.2970 136° Southeast 404 465 17,400 1,680 Climbing FlightAware
11:02AM 25.9190 -79.2850 148° Southeast 404 465 17,700 1,620 Climbing FlightAware
11:03AM 25.8850 -79.2740 164° South 407 468 18,200 1,500 Climbing FlightAware
11:03AM 25.8170 -79.2680 175° South 404 465 19,100 1,440 Climbing FlightAware
11:04AM 25.7490 -79.2610 175° South 417 480 20,000 1,500 Climbing FlightAware
11:05AM 25.6830 -79.2530 174° South 420 483 20,900 1,380 Climbing FlightAware
11:05AM 25.6130 -79.2440 173° South 423 487 21,600 1,260 Climbing FlightAware
11:06AM 25.5450 -79.2360 174° South 423 487 22,400 1,320 Climbing FlightAware
11:06AM 25.4730 -79.2270 174° South 435 501 23,200 1,200 Climbing FlightAware
11:07AM 25.3930 -79.2170 174° South 439 505 24,000 960 Climbing FlightAware
11:07AM 25.3330 -79.2140 177° South 436 502 24,400 840 Climbing FlightAware
11:08AM 25.3010 -79.2210 191° South 436 502 24,600 840 Climbing FlightAware
11:08AM 25.2360 -79.2540 205° Southwest 448 516 25,100 900 Climbing FlightAware
11:09AM 25.1810 -79.2850 207° Southwest 452 520 25,600 960 Climbing FlightAware
11:09AM 25.1150 -79.3220 207° Southwest 449 517 26,200 960 Climbing FlightAware
11:10AM 25.0770 -79.3400 203° Southwest 459 528 26,500 900 Climbing FlightAware
11:10AM 25.0330 -79.3490 190° South 465 535 26,800 900 Climbing FlightAware
11:10AM 24.9800 -79.3440 175° South 471 542 27,200 720 Climbing FlightAware
11:11AM 24.9120 -79.3300 169° South 475 547 27,600 720 Climbing FlightAware
11:12AM 24.8260 -79.3150 171° South 471 542 28,100 840 Climbing FlightAware
11:12AM 24.7510 -79.3020 171° South 474 545 28,600 720 Climbing FlightAware
11:13AM 24.6700 -79.2870 170° South 487 560 29,000 840 Climbing FlightAware
11:13AM 24.5980 -79.2740 171° South 486 559 29,600 960 Climbing FlightAware
11:14AM 24.5120 -79.2580 170° South 487 560 30,200 1,080 Climbing FlightAware
11:15AM 24.4330 -79.2440 171° South 474 545 30,900 1,260 Climbing FlightAware
11:15AM 24.3590 -79.2300 170° South 469 540 31,700 1,080 Climbing FlightAware
11:16AM 24.2820 -79.2170 171° South 469 540 32,200 840 Climbing FlightAware
11:16AM 24.2050 -79.2030 171° South 469 540 32,700 660 Climbing FlightAware
11:17AM 24.1300 -79.1890 170° South 472 543 33,000 240 Climbing FlightAware
11:17AM 24.0540 -79.1760 171° South 469 540 33,000  Level FlightAware
11:18AM 23.9770 -79.1620 171° South 474 545 33,000  Level FlightAware
11:19AM 23.9020 -79.1480 170° South 475 547 33,000  Level FlightAware
11:19AM 23.8380 -79.1360 170° South 476 548 33,000  Level FlightAware
11:20AM 23.7370 -79.1180 171° South 469 540 33,000  Level FlightAware
11:21AM 23.6750 -79.1060 170° South 469 540 33,000  Level FlightAware
11:21AM 23.5800 -79.0910 172° South 474 545 33,000  Level FlightAware
11:22AM 23.5120 -79.0780 170° South 474 545 33,000  Level FlightAware
11:22AM 23.4340 -79.0650 171° South 475 547 33,000  Level FlightAware
11:23AM 23.3640 -79.0510 170° South 475 547 33,000  Level FlightAware
11:24AM 23.2980 -79.0390 171° South 475 547 33,000  Level FlightAware
11:24AM 23.2280 -79.0250 170° South 475 547 33,000  Level FlightAware
11:25AM 23.1620 -79.0130 171° South 475 547 33,000  Level FlightAware
11:25AM 23.0960 -79.0000 170° South 475 547 33,000  Level FlightAware
11:26AM 23.0290 -78.9870 170° South 475 547 33,000  Level FlightAware
11:27AM 22.9630 -78.9750 170° South 475 547 33,000  Level FlightAware
11:27AM 22.8970 -78.9620 170° South 475 547 33,000  Level FlightAware
11:28AM 22.8340 -78.9500 170° South 475 547 33,000  Level FlightAware
11:28AM 22.7680 -78.9370 170° South 475 547 33,000  Level FlightAware
11:29AM 22.7020 -78.9250 170° South 475 547 33,000  Level FlightAware
11:30AM 22.6360 -78.9120 170° South 475 547 33,000  Level FlightAware
11:30AM 22.5640 -78.8980 170° South 475 547 33,000  Level FlightAware
11:31AM 22.4980 -78.8860 170° South 475 547 33,000  Level FlightAware
11:31AM 22.4320 -78.8730 170° South 475 547 33,000  Level FlightAware
11:32AM 22.3690 -78.8610 170° South 475 547 33,000  Level FlightAware
11:35AM 22.0626 -78.8103 171° South  Level FlightAware Approximate
11:36AM 21.9429 -78.7836 165° South  Level FlightAware Approximate
11:37AM 21.8246 -78.7498 165° South  Level FlightAware Approximate
11:38AM 21.7063 -78.7161 165° South  Level FlightAware Approximate
11:39AM 21.5881 -78.6824 165° South  Level FlightAware Approximate
11:40AM 21.4698 -78.6487 165° South  Level FlightAware Approximate
11:41AM 21.3515 -78.6152 165° South  Level FlightAware Approximate
11:42AM 21.2332 -78.5816 165° South  Level FlightAware Approximate
11:43AM 21.1149 -78.5481 165° South  Level FlightAware Approximate
11:44AM 20.9966 -78.5147 165° South  Level FlightAware Approximate
11:45AM 20.8783 -78.4813 165° South  Level FlightAware Approximate
11:46AM 20.7600 -78.4480 165° South  Level FlightAware Approximate
11:47AM 20.6416 -78.4147 165° South  Level FlightAware Approximate
11:48AM 20.5233 -78.3815 165° South  Level FlightAware Approximate
11:49AM 20.4050 -78.3483 165° South  Level FlightAware Approximate
11:50AM 20.2866 -78.3152 165° South  Level FlightAware Approximate
11:51AM 20.1683 -78.2822 165° South  Level FlightAware Approximate
11:52AM 20.0499 -78.2491 165° South  Level FlightAware Approximate
11:53AM 19.9316 -78.2162 165° South  Level FlightAware Approximate
11:54AM 19.8134 -78.1825 165° South  Level FlightAware Approximate
11:55AM 19.6952 -78.1489 165° South  Level FlightAware Approximate
11:56AM 19.5770 -78.1154 165° South  Level FlightAware Approximate
11:57AM 19.4588 -78.0819 165° South  Level FlightAware Approximate
11:58AM 19.3406 -78.0484 165° South  Level FlightAware Approximate
11:59AM 19.2223 -78.0150 165° South  Level FlightAware Approximate
12:00PM 19.1041 -77.9817 165° South  Level FlightAware Approximate
12:01PM 18.9859 -77.9484 165° South  Level FlightAware Approximate
12:02PM 18.8676 -77.9151 165° South  Level FlightAware Approximate
12:03PM 18.7494 -77.8819 165° South  Level FlightAware Approximate
12:04PM 18.6311 -77.8487 165° South  Level FlightAware Approximate
12:05PM 18.5129 -77.8157 166° South  Level FlightAware Approximate
12:06PM 18.3942 -77.7845 166° South  Level FlightAware Approximate
12:07PM 18.2754 -77.7533 166° South  Level FlightAware Approximate
12:08PM 18.1567 -77.7222 166° South  Level FlightAware Approximate
12:09PM 18.0380 -77.6911 166° South  Level FlightAware Approximate
12:10PM 17.9193 -77.6601 166° South  Level FlightAware Approximate
12:11PM 17.8006 -77.6289 165° South  Level FlightAware Approximate
12:12PM 17.6822 -77.5962 165° South  Level FlightAware Approximate
12:13PM 17.5639 -77.5636 165° South  Level FlightAware Approximate
12:14PM 17.4456 -77.5310 165° South  Level FlightAware Approximate
12:15PM 17.3272 -77.4984 165° South  Level FlightAware Approximate
12:16PM 17.2089 -77.4659 165° South  Level FlightAware Approximate
12:17PM 17.0905 -77.4334 165° South  Level FlightAware Approximate
12:18PM 16.9722 -77.4010 165° South  Level FlightAware Approximate
12:19PM 16.8538 -77.3686 165° South  Level FlightAware Approximate
12:20PM 16.7354 -77.3363 165° South  Level FlightAware Approximate
12:21PM 16.6171 -77.3040 165° South  Level FlightAware Approximate
12:22PM 16.4987 -77.2717 165° South  Level FlightAware Approximate
12:23PM 16.3803 -77.2395 165° South  Level FlightAware Approximate
12:24PM 16.2619 -77.2073 165° South  Level FlightAware Approximate
12:25PM 16.1435 -77.1752 165° South  Level FlightAware Approximate
12:26PM 16.0251 -77.1431 165° South  Level FlightAware Approximate
12:27PM 15.9067 -77.1110 165° South  Level FlightAware Approximate
12:28PM 15.7883 -77.0790 165° South  Level FlightAware Approximate
12:29PM 15.6699 -77.0470 165° South  Level FlightAware Approximate
12:30PM 15.5515 -77.0150 165° South  Level FlightAware Approximate
12:31PM 15.4331 -76.9831 165° South  Level FlightAware Approximate
12:32PM 15.3146 -76.9512 165° South  Level FlightAware Approximate
12:33PM 15.1962 -76.9193 165° South  Level FlightAware Approximate
12:34PM 15.0778 -76.8875 165° South  Level FlightAware Approximate
12:35PM 14.9588 -76.8585 169° South  Level FlightAware Approximate
12:36PM 14.8386 -76.8346 169° South  Level FlightAware Approximate
12:37PM 14.7185 -76.8107 169° South  Level FlightAware Approximate
12:38PM 14.5983 -76.7869 169° South  Level FlightAware Approximate
12:39PM 14.4782 -76.7631 169° South  Level FlightAware Approximate
12:40PM 14.3580 -76.7393 169° South  Level FlightAware Approximate
12:41PM 14.2378 -76.7156 169° South  Level FlightAware Approximate
12:42PM 14.1177 -76.6918 169° South  Level FlightAware Approximate
12:43PM 13.9975 -76.6681 169° South  Level FlightAware Approximate
12:44PM 13.8773 -76.6444 169° South  Level FlightAware Approximate
12:45PM 13.7571 -76.6208 169° South  Level FlightAware Approximate
12:46PM 13.6370 -76.5971 169° South  Level FlightAware Approximate
12:47PM 13.5169 -76.5732 169° South  Level FlightAware Approximate
12:48PM 13.3968 -76.5488 169° South  Level FlightAware Approximate
12:49PM 13.2768 -76.5244 169° South  Level FlightAware Approximate
12:50PM 13.1568 -76.5000 169° South  Level FlightAware Approximate
12:51PM 13.0367 -76.4756 169° South  Level FlightAware Approximate
12:52PM 12.9167 -76.4513 169° South  Level FlightAware Approximate
12:53PM 12.7967 -76.4270 169° South  Level FlightAware Approximate
12:54PM 12.6767 -76.4027 169° South  Level FlightAware Approximate
12:55PM 12.5566 -76.3784 169° South  Level FlightAware Approximate
12:56PM 12.4366 -76.3542 169° South  Level FlightAware Approximate
12:57PM 12.3165 -76.3299 169° South  Level FlightAware Approximate
12:57PM 11.4410 -76.1620 169° South 462 532 35,000  Level FlightAware
12:58PM 12.1965 -76.3057 169° South  Level FlightAware Approximate
12:58PM 11.3470 -76.1430 169° South 460 529 35,000  Level FlightAware
12:59PM 11.2710 -76.1280 169° South 461 531 35,000  Level FlightAware
12:59PM 11.1890 -76.1120 169° South 460 529 35,000  Level FlightAware
01:00PM 11.1100 -76.0960 169° South 461 531 35,000  Level FlightAware
01:01PM 11.0310 -76.0810 169° South 462 532 35,000  Level FlightAware
01:01PM 10.9570 -76.0660 169° South 462 532 35,000  Level FlightAware
01:02PM 10.8930 -76.0530 169° South 461 531 35,000  Level FlightAware
01:02PM 10.8100 -76.0370 169° South 462 532 35,000  Level FlightAware
01:03PM 10.7370 -76.0220 169° South 463 533 35,000  Level FlightAware
01:04PM 10.6620 -76.0080 170° South 462 532 35,000  Level FlightAware
01:04PM 10.5810 -75.9920 169° South 460 529 35,000  Level FlightAware
01:05PM 10.5160 -75.9790 169° South 461 531 35,000  Level FlightAware
01:05PM 10.4420 -75.9640 169° South 460 529 35,000  Level FlightAware
01:06PM 10.3680 -75.9500 169° South 460 529 35,000  Level FlightAware
01:07PM 10.2740 -75.9310 169° South 461 531 35,000  Level FlightAware
01:07PM 10.2010 -75.9170 169° South 463 533 35,000  Level FlightAware
01:08PM 10.1380 -75.9040 169° South 464 534 35,000  Level FlightAware
01:08PM 10.0530 -75.8870 169° South 466 536 35,000  Level FlightAware
01:09PM 9.9790 -75.8730 169° South 466 536 35,000  Level FlightAware
01:09PM 9.9140 -75.8600 169° South 466 536 35,000  Level FlightAware
01:10PM 9.8190 -75.8410 169° South 465 535 35,000  Level FlightAware
01:11PM 9.7230 -75.8230 170° South 466 536 35,000  Level FlightAware
01:12PM 9.6390 -75.8060 169° South 466 536 35,000  Level FlightAware
01:12PM 9.5640 -75.7910 169° South 464 534 35,000  Level FlightAware
01:13PM 9.4940 -75.7770 169° South 464 534 35,000  Level FlightAware
01:13PM 9.4160 -75.7620 169° South 464 534 35,000  Level FlightAware
01:14PM 9.3350 -75.7460 169° South 464 534 35,000  Level FlightAware
01:15PM 9.2610 -75.7320 169° South 461 531 35,000  Level FlightAware
01:15PM 9.1930 -75.7180 169° South 461 531 35,000  Level FlightAware
01:16PM 9.1260 -75.7050 169° South 461 531 35,000  Level FlightAware
01:16PM 9.0620 -75.6930 170° South 461 531 35,000  Level FlightAware
01:17PM 8.9250 -75.6660 169° South 460 529 35,000  Level FlightAware
01:18PM 8.8440 -75.6500 169° South 461 531 35,000  Level FlightAware
01:19PM 8.7450 -75.6310 169° South 466 536 35,000  Level FlightAware
01:19PM 8.6700 -75.6160 169° South 469 540 35,000  Level FlightAware
01:20PM 8.5820 -75.5990 169° South 470 541 35,000  Level FlightAware
01:21PM 8.5120 -75.5850 169° South 470 541 35,000  Level FlightAware
01:21PM 8.4330 -75.5700 169° South 470 541 35,000  Level FlightAware
01:22PM 8.3280 -75.5490 169° South 471 542 35,000  Level FlightAware
01:23PM 8.2510 -75.5340 169° South 472 543 35,000  Level FlightAware
01:23PM 8.1460 -75.5140 169° South 471 542 35,000  Level FlightAware
01:24PM 8.0680 -75.4990 169° South 470 541 35,000  Level FlightAware
01:25PM 7.9960 -75.4850 169° South 470 541 35,000  Level FlightAware
01:25PM 7.9230 -75.4700 168° South 470 541 35,000  Level FlightAware
01:26PM 7.8340 -75.4550 171° South 469 540 35,000  Level FlightAware
01:26PM 7.7780 -75.4510 176° South 468 539 35,000 -300 Level FlightAware
01:27PM 7.6940 -75.4440 175° South 467 537 34,700 -720 Descending FlightAware
01:27PM 7.6170 -75.4380 176° South 469 540 34,200 -960 Descending FlightAware
01:28PM 7.5400 -75.4320 176° South 471 542 33,600 -960 Descending FlightAware
01:29PM 7.4660 -75.4260 175° South 473 544 33,100 -1,380 Descending FlightAware
01:29PM 7.3890 -75.4200 176° South 472 543 32,000 -2,040 Descending FlightAware
01:30PM 7.2890 -75.4120 175° South 464 534 30,400 -2,100 Descending FlightAware
01:30PM 7.2260 -75.4070 175° South 459 528 29,400 -2,520 Descending FlightAware
01:31PM 7.1520 -75.4010 175° South 458 527 27,700 -2,760 Descending FlightAware
01:32PM 7.0670 -75.3940 175° South 452 520 26,000 -2,160 Descending FlightAware
01:32PM 6.9940 -75.3880 175° South 437 503 25,000 -1,320 Descending FlightAware
01:33PM 6.9310 -75.3830 175° South 414 476 24,500 -1,800 Descending FlightAware
01:33PM 6.8590 -75.3770 175° South 416 479 22,900 -2,280 Descending FlightAware
01:34PM 6.8010 -75.3730 176° South 406 467 21,900 -2,040 Descending FlightAware
01:35PM 6.7180 -75.3660 175° South 590 679 20,300 -2,340 Descending FlightAware
01:37PM 6.5081 -75.3352 176° South  Level FlightAware Approximate
01:38PM 6.3858 -75.3333 180° South  Level FlightAware Approximate
01:39PM 6.2645 -75.3229 169° South  Level FlightAware Approximate
01:40PM 6.1652 -75.3406 259° West  Level FlightAware Approximate
01:41PM 6.1500 -75.4167 259° West  Level FlightAware Approximate
01:42PM 6.1645 -75.4231 259° West  Level Estimated
01:43PM 6.1645 -75.4231 259° West  Level Estimated
01:44PM 6.1645 -75.4231 259° West  Level Estimated
01:45PM 6.1645 -75.4231 259° West  Level Estimated
01:46PM 6.1645 -75.4231 259° West  Level Estimated
01:47PM 6.1645 -75.4231 259° West  Level Estimated
01:48PM 6.1645 -75.4231 259° West  Level Estimated
01:49PM 6.1645 -75.4231 259° West  Level Estimated
01:50PM 6.1645 -75.4231 259° West  Level Estimated
01:51PM 6.1645 -75.4231 259° West  Level Estimated
01:52PM 6.1645 -75.4231 259° West  Level Estimated
01:53PM 6.1645 -75.4231 259° West  Level Estimated
01:54PM 6.1645 -75.4231 259° West  Level Estimated
01:55PM 6.1645 -75.4231 259° West  Level Estimated
01:56PM 6.1645 -75.4231 259° West  Level Estimated
01:57PM 6.1645 -75.4231 259° West  Level Estimated
01:58PM 6.1645 -75.4231 259° West  Level Estimated
01:59PM 6.1645 -75.4231 259° West  Level Estimated
02:00PM 6.1645 -75.4231 259° West  Level Estimated
02:01PM 6.1645 -75.4231 259° West  Level Estimated
02:02PM 6.1645 -75.4231 259° West  Level Estimated